sensor_id;sensor_type;location;lat;lon;timestamp;temperature;humidity
15574;DHT22;7888;46.748;8.102;2023-03-05T00:00:23;10.70;44.20
15574;DHT22;7888;46.748;8.102;2023-03-05T00:02:49;10.70;44.20
15574;DHT22;7888;46.748;8.102;2023-03-05T00:05:15;10.60;44.10
15574;DHT22;7888;46.748;8.102;2023-03-05T00:07:41;10.60;44.10
15574;DHT22;7888;46.748;8.102;2023-03-05T00:10:07;10.60;44.10
15574;DHT22;7888;46.748;8.102;2023-03-05T00:12:33;10.60;44.10
15574;DHT22;7888;46.748;8.102;2023-03-05T00:14:59;10.50;44.00
15574;DHT22;7888;46.748;8.102;2023-03-05T00:17:25;10.50;44.00
15574;DHT22;7888;46.748;8.102;2023-03-05T00:19:51;10.50;44.10
15574;DHT22;7888;46.748;8.102;2023-03-05T00:22:16;10.50;44.20
15574;DHT22;7888;46.748;8.102;2023-03-05T00:24:42;10.40;44.10
15574;DHT22;7888;46.748;8.102;2023-03-05T00:27:08;10.40;44.20
15574;DHT22;7888;46.748;8.102;2023-03-05T00:29:34;10.40;44.20
15574;DHT22;7888;46.748;8.102;2023-03-05T00:31:59;10.40;44.30
15574;DHT22;7888;46.748;8.102;2023-03-05T00:34:25;10.30;44.10
15574;DHT22;7888;46.748;8.102;2023-03-05T00:36:52;10.30;44.20
15574;DHT22;7888;46.748;8.102;2023-03-05T00:39:19;10.30;44.30
15574;DHT22;7888;46.748;8.102;2023-03-05T00:41:45;10.20;44.20
15574;DHT22;7888;46.748;8.102;2023-03-05T00:44:12;10.20;44.20
15574;DHT22;7888;46.748;8.102;2023-03-05T00:46:38;10.10;43.90
15574;DHT22;7888;46.748;8.102;2023-03-05T00:49:04;10.10;44.00
15574;DHT22;7888;46.748;8.102;2023-03-05T00:51:31;10.10;44.00
15574;DHT22;7888;46.748;8.102;2023-03-05T00:53:57;10.00;43.90
15574;DHT22;7888;46.748;8.102;2023-03-05T00:56:23;10.00;43.90
15574;DHT22;7888;46.748;8.102;2023-03-05T00:58:49;9.90;44.10
15574;DHT22;7888;46.748;8.102;2023-03-05T01:01:14;9.90;44.00
15574;DHT22;7888;46.748;8.102;2023-03-05T01:03:40;9.80;44.10
15574;DHT22;7888;46.748;8.102;2023-03-05T01:06:09;9.80;44.10
15574;DHT22;7888;46.748;8.102;2023-03-05T01:08:38;9.70;44.30
15574;DHT22;7888;46.748;8.102;2023-03-05T01:11:05;9.60;44.10
15574;DHT22;7888;46.748;8.102;2023-03-05T01:13:32;9.60;44.20
15574;DHT22;7888;46.748;8.102;2023-03-05T01:15:57;9.50;44.30
15574;DHT22;7888;46.748;8.102;2023-03-05T01:18:24;9.50;44.40
15574;DHT22;7888;46.748;8.102;2023-03-05T01:20:50;9.40;44.40
15574;DHT22;7888;46.748;8.102;2023-03-05T01:23:16;9.40;44.50
15574;DHT22;7888;46.748;8.102;2023-03-05T01:25:42;9.30;44.50
15574;DHT22;7888;46.748;8.102;2023-03-05T01:28:08;9.30;44.50
15574;DHT22;7888;46.748;8.102;2023-03-05T01:30:34;9.20;44.40
15574;DHT22;7888;46.748;8.102;2023-03-05T01:33:00;9.20;44.30
15574;DHT22;7888;46.748;8.102;2023-03-05T01:35:27;9.10;44.40
15574;DHT22;7888;46.748;8.102;2023-03-05T01:37:53;9.10;44.40
15574;DHT22;7888;46.748;8.102;2023-03-05T01:40:30;9.00;44.50
15574;DHT22;7888;46.748;8.102;2023-03-05T01:42:59;9.00;44.90
15574;DHT22;7888;46.748;8.102;2023-03-05T01:45:32;8.90;44.70
15574;DHT22;7888;46.748;8.102;2023-03-05T01:47:59;8.90;44.60
15574;DHT22;7888;46.748;8.102;2023-03-05T01:50:26;8.90;44.70
15574;DHT22;7888;46.748;8.102;2023-03-05T01:53:00;8.80;44.80
15574;DHT22;7888;46.748;8.102;2023-03-05T01:55:30;8.80;44.90
15574;DHT22;7888;46.748;8.102;2023-03-05T02:00:43;8.70;45.00
15574;DHT22;7888;46.748;8.102;2023-03-05T02:03:12;8.60;45.10
15574;DHT22;7888;46.748;8.102;2023-03-05T02:05:40;8.60;45.00
15574;DHT22;7888;46.748;8.102;2023-03-05T02:08:16;8.50;45.10
15574;DHT22;7888;46.748;8.102;2023-03-05T02:10:47;8.50;45.30
15574;DHT22;7888;46.748;8.102;2023-03-05T02:13:25;8.40;45.30
15574;DHT22;7888;46.748;8.102;2023-03-05T02:15:55;8.30;45.40
15574;DHT22;7888;46.748;8.102;2023-03-05T02:18:24;8.30;45.30
15574;DHT22;7888;46.748;8.102;2023-03-05T02:23:27;8.20;45.40
15574;DHT22;7888;46.748;8.102;2023-03-05T02:25:54;8.20;45.40
15574;DHT22;7888;46.748;8.102;2023-03-05T02:30:54;8.20;45.60
15574;DHT22;7888;46.748;8.102;2023-03-05T02:33:20;8.20;45.40
15574;DHT22;7888;46.748;8.102;2023-03-05T02:35:47;8.10;45.20
15574;DHT22;7888;46.748;8.102;2023-03-05T02:38:14;8.10;45.20
15574;DHT22;7888;46.748;8.102;2023-03-05T02:40:42;8.00;45.20
15574;DHT22;7888;46.748;8.102;2023-03-05T02:43:09;8.00;45.40
15574;DHT22;7888;46.748;8.102;2023-03-05T02:45:36;8.00;45.50
15574;DHT22;7888;46.748;8.102;2023-03-05T02:48:02;7.90;45.60
15574;DHT22;7888;46.748;8.102;2023-03-05T02:50:29;7.90;45.70
15574;DHT22;7888;46.748;8.102;2023-03-05T02:52:56;7.80;45.70
15574;DHT22;7888;46.748;8.102;2023-03-05T02:55:22;7.80;45.70
15574;DHT22;7888;46.748;8.102;2023-03-05T02:57:48;7.70;45.80
15574;DHT22;7888;46.748;8.102;2023-03-05T03:00:14;7.70;45.80
15574;DHT22;7888;46.748;8.102;2023-03-05T03:02:40;7.70;46.00
15574;DHT22;7888;46.748;8.102;2023-03-05T03:05:07;7.60;46.00
15574;DHT22;7888;46.748;8.102;2023-03-05T03:07:33;7.60;46.10
15574;DHT22;7888;46.748;8.102;2023-03-05T03:10:01;7.50;46.10
15574;DHT22;7888;46.748;8.102;2023-03-05T03:12:28;7.50;46.20
15574;DHT22;7888;46.748;8.102;2023-03-05T03:14:53;7.50;46.20
15574;DHT22;7888;46.748;8.102;2023-03-05T03:17:19;7.50;46.20
15574;DHT22;7888;46.748;8.102;2023-03-05T03:19:45;7.40;46.20
15574;DHT22;7888;46.748;8.102;2023-03-05T03:22:13;7.40;46.20
15574;DHT22;7888;46.748;8.102;2023-03-05T03:24:40;7.40;46.00
15574;DHT22;7888;46.748;8.102;2023-03-05T03:27:07;7.40;46.00
15574;DHT22;7888;46.748;8.102;2023-03-05T03:29:33;7.40;46.10
15574;DHT22;7888;46.748;8.102;2023-03-05T03:32:00;7.30;46.20
15574;DHT22;7888;46.748;8.102;2023-03-05T03:34:26;7.30;46.30
15574;DHT22;7888;46.748;8.102;2023-03-05T03:36:52;7.30;46.40
15574;DHT22;7888;46.748;8.102;2023-03-05T03:39:19;7.30;46.40
15574;DHT22;7888;46.748;8.102;2023-03-05T03:41:48;7.30;46.50
15574;DHT22;7888;46.748;8.102;2023-03-05T03:44:16;7.20;46.50
15574;DHT22;7888;46.748;8.102;2023-03-05T03:46:44;7.20;46.40
15574;DHT22;7888;46.748;8.102;2023-03-05T03:49:23;7.20;46.50
15574;DHT22;7888;46.748;8.102;2023-03-05T03:51:51;7.10;46.70
15574;DHT22;7888;46.748;8.102;2023-03-05T03:54:19;7.10;46.50
15574;DHT22;7888;46.748;8.102;2023-03-05T03:56:46;7.10;46.40
15574;DHT22;7888;46.748;8.102;2023-03-05T03:59:12;7.10;46.40
15574;DHT22;7888;46.748;8.102;2023-03-05T04:01:39;7.00;46.40
15574;DHT22;7888;46.748;8.102;2023-03-05T04:04:06;7.00;46.50
15574;DHT22;7888;46.748;8.102;2023-03-05T04:06:32;7.00;46.60
15574;DHT22;7888;46.748;8.102;2023-03-05T04:08:58;7.00;46.50
15574;DHT22;7888;46.748;8.102;2023-03-05T04:11:24;7.00;46.50
15574;DHT22;7888;46.748;8.102;2023-03-05T04:13:50;7.00;46.50
15574;DHT22;7888;46.748;8.102;2023-03-05T04:16:17;7.00;46.60
15574;DHT22;7888;46.748;8.102;2023-03-05T04:18:43;6.90;46.70
15574;DHT22;7888;46.748;8.102;2023-03-05T04:21:09;6.90;46.80
15574;DHT22;7888;46.748;8.102;2023-03-05T04:23:36;6.90;46.80
15574;DHT22;7888;46.748;8.102;2023-03-05T04:26:03;6.90;46.80
15574;DHT22;7888;46.748;8.102;2023-03-05T04:28:29;6.80;46.90
15574;DHT22;7888;46.748;8.102;2023-03-05T04:30:55;6.80;46.90
15574;DHT22;7888;46.748;8.102;2023-03-05T04:33:20;6.80;46.90
15574;DHT22;7888;46.748;8.102;2023-03-05T04:35:46;6.80;46.90
15574;DHT22;7888;46.748;8.102;2023-03-05T04:38:12;6.70;47.10
15574;DHT22;7888;46.748;8.102;2023-03-05T04:40:38;6.70;47.00
15574;DHT22;7888;46.748;8.102;2023-03-05T04:43:04;6.70;47.00
15574;DHT22;7888;46.748;8.102;2023-03-05T04:45:31;6.60;47.10
15574;DHT22;7888;46.748;8.102;2023-03-05T04:47:57;6.60;47.20
15574;DHT22;7888;46.748;8.102;2023-03-05T04:50:23;6.60;47.10
15574;DHT22;7888;46.748;8.102;2023-03-05T04:52:49;6.50;47.00
15574;DHT22;7888;46.748;8.102;2023-03-05T04:55:16;6.50;47.10
15574;DHT22;7888;46.748;8.102;2023-03-05T04:57:42;6.50;47.20
15574;DHT22;7888;46.748;8.102;2023-03-05T05:00:12;6.40;47.10
15574;DHT22;7888;46.748;8.102;2023-03-05T05:02:44;6.40;47.20
15574;DHT22;7888;46.748;8.102;2023-03-05T05:05:14;6.40;47.30
15574;DHT22;7888;46.748;8.102;2023-03-05T05:07:41;6.40;47.40
15574;DHT22;7888;46.748;8.102;2023-03-05T05:10:08;6.40;47.40
15574;DHT22;7888;46.748;8.102;2023-03-05T05:12:36;6.40;47.30
15574;DHT22;7888;46.748;8.102;2023-03-05T05:15:03;6.40;47.40
15574;DHT22;7888;46.748;8.102;2023-03-05T05:17:31;6.40;47.50
15574;DHT22;7888;46.748;8.102;2023-03-05T05:19:58;6.30;47.30
15574;DHT22;7888;46.748;8.102;2023-03-05T05:22:26;6.30;47.30
15574;DHT22;7888;46.748;8.102;2023-03-05T05:24:54;6.30;47.30
15574;DHT22;7888;46.748;8.102;2023-03-05T05:27:21;6.40;47.30
15574;DHT22;7888;46.748;8.102;2023-03-05T05:29:47;6.30;47.40
15574;DHT22;7888;46.748;8.102;2023-03-05T05:32:19;6.30;47.40
15574;DHT22;7888;46.748;8.102;2023-03-05T05:34:46;6.30;47.30
15574;DHT22;7888;46.748;8.102;2023-03-05T05:37:12;6.40;47.30
15574;DHT22;7888;46.748;8.102;2023-03-05T05:39:39;6.30;47.30
15574;DHT22;7888;46.748;8.102;2023-03-05T05:42:05;6.30;47.30
15574;DHT22;7888;46.748;8.102;2023-03-05T05:44:31;6.30;47.30
15574;DHT22;7888;46.748;8.102;2023-03-05T05:46:59;6.30;47.30
15574;DHT22;7888;46.748;8.102;2023-03-05T05:49:25;6.30;47.30
15574;DHT22;7888;46.748;8.102;2023-03-05T05:51:51;6.30;47.20
15574;DHT22;7888;46.748;8.102;2023-03-05T05:54:16;6.30;47.10
15574;DHT22;7888;46.748;8.102;2023-03-05T05:56:42;6.30;47.00
15574;DHT22;7888;46.748;8.102;2023-03-05T05:59:09;6.30;47.10
15574;DHT22;7888;46.748;8.102;2023-03-05T06:01:35;6.30;47.30
15574;DHT22;7888;46.748;8.102;2023-03-05T06:04:01;6.30;47.30
15574;DHT22;7888;46.748;8.102;2023-03-05T06:06:28;6.30;47.40
15574;DHT22;7888;46.748;8.102;2023-03-05T06:08:54;6.30;47.50
15574;DHT22;7888;46.748;8.102;2023-03-05T06:11:20;6.30;47.50
15574;DHT22;7888;46.748;8.102;2023-03-05T06:13:48;6.20;47.30
15574;DHT22;7888;46.748;8.102;2023-03-05T06:16:16;6.20;47.30
15574;DHT22;7888;46.748;8.102;2023-03-05T06:18:45;6.20;47.50
15574;DHT22;7888;46.748;8.102;2023-03-05T06:21:13;6.20;47.50
15574;DHT22;7888;46.748;8.102;2023-03-05T06:23:41;6.20;47.60
15574;DHT22;7888;46.748;8.102;2023-03-05T06:26:10;6.20;47.70
15574;DHT22;7888;46.748;8.102;2023-03-05T06:28:38;6.20;47.80
15574;DHT22;7888;46.748;8.102;2023-03-05T06:31:06;6.20;47.70
15574;DHT22;7888;46.748;8.102;2023-03-05T06:33:34;6.20;47.90
15574;DHT22;7888;46.748;8.102;2023-03-05T06:36:05;6.30;47.80
15574;DHT22;7888;46.748;8.102;2023-03-05T06:38:32;6.30;48.00
15574;DHT22;7888;46.748;8.102;2023-03-05T06:41:03;6.30;47.90
15574;DHT22;7888;46.748;8.102;2023-03-05T06:43:34;6.30;48.00
15574;DHT22;7888;46.748;8.102;2023-03-05T06:48:46;6.30;48.00
15574;DHT22;7888;46.748;8.102;2023-03-05T06:51:21;6.40;48.00
15574;DHT22;7888;46.748;8.102;2023-03-05T06:53:54;6.40;48.40
15574;DHT22;7888;46.748;8.102;2023-03-05T06:56:21;6.50;48.30
15574;DHT22;7888;46.748;8.102;2023-03-05T06:58:48;6.50;48.30
15574;DHT22;7888;46.748;8.102;2023-03-05T07:01:15;6.50;48.40
15574;DHT22;7888;46.748;8.102;2023-03-05T07:03:42;6.60;48.30
15574;DHT22;7888;46.748;8.102;2023-03-05T07:06:10;6.60;48.30
15574;DHT22;7888;46.748;8.102;2023-03-05T07:08:38;6.70;48.30
15574;DHT22;7888;46.748;8.102;2023-03-05T07:11:17;6.70;48.20
15574;DHT22;7888;46.748;8.102;2023-03-05T07:13:44;6.70;48.50
15574;DHT22;7888;46.748;8.102;2023-03-05T07:16:17;6.70;48.20
15574;DHT22;7888;46.748;8.102;2023-03-05T07:18:45;6.80;48.50
15574;DHT22;7888;46.748;8.102;2023-03-05T07:21:15;6.80;48.40
15574;DHT22;7888;46.748;8.102;2023-03-05T07:23:42;6.80;48.50
15574;DHT22;7888;46.748;8.102;2023-03-05T07:26:10;6.90;48.30
15574;DHT22;7888;46.748;8.102;2023-03-05T07:28:36;6.90;48.40
15574;DHT22;7888;46.748;8.102;2023-03-05T07:31:05;6.90;48.40
15574;DHT22;7888;46.748;8.102;2023-03-05T07:33:33;6.90;48.40
15574;DHT22;7888;46.748;8.102;2023-03-05T07:36:02;7.00;48.30
15574;DHT22;7888;46.748;8.102;2023-03-05T07:38:30;7.00;48.30
15574;DHT22;7888;46.748;8.102;2023-03-05T07:40:56;7.00;48.40
15574;DHT22;7888;46.748;8.102;2023-03-05T07:43:27;7.00;48.60
15574;DHT22;7888;46.748;8.102;2023-03-05T07:45:52;7.10;48.70
15574;DHT22;7888;46.748;8.102;2023-03-05T07:48:18;7.20;48.80
15574;DHT22;7888;46.748;8.102;2023-03-05T07:50:47;7.30;48.70
15574;DHT22;7888;46.748;8.102;2023-03-05T07:53:14;7.30;48.60
15574;DHT22;7888;46.748;8.102;2023-03-05T07:55:44;7.40;48.50
15574;DHT22;7888;46.748;8.102;2023-03-05T07:58:12;7.50;48.50
15574;DHT22;7888;46.748;8.102;2023-03-05T08:00:39;7.50;48.40
15574;DHT22;7888;46.748;8.102;2023-03-05T08:03:05;7.60;48.30
15574;DHT22;7888;46.748;8.102;2023-03-05T08:05:32;7.60;48.20
15574;DHT22;7888;46.748;8.102;2023-03-05T08:07:58;7.70;48.20
15574;DHT22;7888;46.748;8.102;2023-03-05T08:10:24;7.70;48.20
15574;DHT22;7888;46.748;8.102;2023-03-05T08:12:50;7.70;48.10
15574;DHT22;7888;46.748;8.102;2023-03-05T08:15:15;7.80;48.20
15574;DHT22;7888;46.748;8.102;2023-03-05T08:17:41;7.90;48.20
15574;DHT22;7888;46.748;8.102;2023-03-05T08:20:08;8.00;48.20
15574;DHT22;7888;46.748;8.102;2023-03-05T08:22:35;8.10;48.20
15574;DHT22;7888;46.748;8.102;2023-03-05T08:25:03;8.20;48.20
15574;DHT22;7888;46.748;8.102;2023-03-05T08:27:30;8.30;48.10
15574;DHT22;7888;46.748;8.102;2023-03-05T08:29:56;8.40;48.00
15574;DHT22;7888;46.748;8.102;2023-03-05T08:32:22;8.50;48.00
15574;DHT22;7888;46.748;8.102;2023-03-05T08:34:48;8.60;48.50
15574;DHT22;7888;46.748;8.102;2023-03-05T08:37:14;8.60;47.90
15574;DHT22;7888;46.748;8.102;2023-03-05T08:39:40;8.70;47.80
15574;DHT22;7888;46.748;8.102;2023-03-05T08:42:06;8.80;47.90
15574;DHT22;7888;46.748;8.102;2023-03-05T08:44:32;8.80;47.80
15574;DHT22;7888;46.748;8.102;2023-03-05T08:46:57;8.90;47.70
15574;DHT22;7888;46.748;8.102;2023-03-05T08:49:23;9.00;47.70
15574;DHT22;7888;46.748;8.102;2023-03-05T08:51:49;9.10;47.60
15574;DHT22;7888;46.748;8.102;2023-03-05T08:54:15;9.10;47.50
15574;DHT22;7888;46.748;8.102;2023-03-05T08:56:40;9.20;47.50
15574;DHT22;7888;46.748;8.102;2023-03-05T08:59:06;9.30;47.50
15574;DHT22;7888;46.748;8.102;2023-03-05T09:01:33;9.40;47.50
15574;DHT22;7888;46.748;8.102;2023-03-05T09:03:59;9.40;47.40
15574;DHT22;7888;46.748;8.102;2023-03-05T09:06:26;9.50;47.30
15574;DHT22;7888;46.748;8.102;2023-03-05T09:08:53;9.60;47.20
15574;DHT22;7888;46.748;8.102;2023-03-05T09:11:19;9.60;47.10
15574;DHT22;7888;46.748;8.102;2023-03-05T09:13:45;9.70;47.00
15574;DHT22;7888;46.748;8.102;2023-03-05T09:16:14;9.80;47.10
15574;DHT22;7888;46.748;8.102;2023-03-05T09:18:42;9.80;47.00
15574;DHT22;7888;46.748;8.102;2023-03-05T09:21:11;9.90;46.90
15574;DHT22;7888;46.748;8.102;2023-03-05T09:23:40;10.00;46.80
15574;DHT22;7888;46.748;8.102;2023-03-05T09:26:08;10.00;46.70
15574;DHT22;7888;46.748;8.102;2023-03-05T09:28:38;10.10;46.70
15574;DHT22;7888;46.748;8.102;2023-03-05T09:31:05;10.20;46.50
15574;DHT22;7888;46.748;8.102;2023-03-05T09:33:33;10.20;46.40
15574;DHT22;7888;46.748;8.102;2023-03-05T09:36:00;10.40;46.50
15574;DHT22;7888;46.748;8.102;2023-03-05T09:38:27;10.40;46.30
15574;DHT22;7888;46.748;8.102;2023-03-05T09:44:25;10.50;46.10
15574;DHT22;7888;46.748;8.102;2023-03-05T09:46:56;10.60;46.00
15574;DHT22;7888;46.748;8.102;2023-03-05T09:52:38;10.70;45.80
15574;DHT22;7888;46.748;8.102;2023-03-05T09:55:33;10.70;45.80
15574;DHT22;7888;46.748;8.102;2023-03-05T09:58:23;10.80;45.60
15574;DHT22;7888;46.748;8.102;2023-03-05T10:00:59;10.90;45.70
15574;DHT22;7888;46.748;8.102;2023-03-05T10:03:35;11.00;45.80
15574;DHT22;7888;46.748;8.102;2023-03-05T10:06:30;11.10;45.80
15574;DHT22;7888;46.748;8.102;2023-03-05T10:14:20;11.40;45.50
15574;DHT22;7888;46.748;8.102;2023-03-05T10:43:10;12.60;44.20
15574;DHT22;7888;46.748;8.102;2023-03-05T10:45:39;12.70;44.00
15574;DHT22;7888;46.748;8.102;2023-03-05T10:54:23;12.90;43.70
15574;DHT22;7888;46.748;8.102;2023-03-05T10:57:22;12.90;43.50
15574;DHT22;7888;46.748;8.102;2023-03-05T11:00:09;13.00;43.30
15574;DHT22;7888;46.748;8.102;2023-03-05T11:05:45;13.10;43.20
15574;DHT22;7888;46.748;8.102;2023-03-05T11:08:28;13.20;43.40
15574;DHT22;7888;46.748;8.102;2023-03-05T11:13:57;13.30;43.60
15574;DHT22;7888;46.748;8.102;2023-03-05T11:16:25;13.40;43.30
15574;DHT22;7888;46.748;8.102;2023-03-05T11:19:16;13.50;43.30
15574;DHT22;7888;46.748;8.102;2023-03-05T11:21:46;13.50;42.70
15574;DHT22;7888;46.748;8.102;2023-03-05T11:24:28;13.60;43.10
15574;DHT22;7888;46.748;8.102;2023-03-05T11:26:56;13.60;43.00
15574;DHT22;7888;46.748;8.102;2023-03-05T11:29:26;13.70;42.90
15574;DHT22;7888;46.748;8.102;2023-03-05T11:31:54;13.70;42.90
15574;DHT22;7888;46.748;8.102;2023-03-05T11:34:31;13.70;42.80
15574;DHT22;7888;46.748;8.102;2023-03-05T11:37:01;13.80;42.40
15574;DHT22;7888;46.748;8.102;2023-03-05T11:39:30;13.90;42.30
15574;DHT22;7888;46.748;8.102;2023-03-05T11:42:18;13.90;42.00
15574;DHT22;7888;46.748;8.102;2023-03-05T11:44:55;13.90;41.60
15574;DHT22;7888;46.748;8.102;2023-03-05T11:50:34;13.90;41.80
15574;DHT22;7888;46.748;8.102;2023-03-05T11:53:10;14.00;42.30
15574;DHT22;7888;46.748;8.102;2023-03-05T11:55:57;14.00;41.90
15574;DHT22;7888;46.748;8.102;2023-03-05T11:58:43;14.10;41.90
15574;DHT22;7888;46.748;8.102;2023-03-05T12:01:17;14.10;41.70
15574;DHT22;7888;46.748;8.102;2023-03-05T12:03:45;14.20;42.20
15574;DHT22;7888;46.748;8.102;2023-03-05T12:08:47;14.50;42.30
15574;DHT22;7888;46.748;8.102;2023-03-05T12:11:21;14.60;42.10
15574;DHT22;7888;46.748;8.102;2023-03-05T12:17:26;15.00;42.10
15574;DHT22;7888;46.748;8.102;2023-03-05T12:20:40;15.10;41.10
15574;DHT22;7888;46.748;8.102;2023-03-05T12:22:57;15.10;41.10
15574;DHT22;7888;46.748;8.102;2023-03-05T12:25:34;15.20;41.70
15574;DHT22;7888;46.748;8.102;2023-03-05T12:33:39;15.10;40.80
15574;DHT22;7888;46.748;8.102;2023-03-05T12:38:56;15.10;40.40
15574;DHT22;7888;46.748;8.102;2023-03-05T12:51:47;15.40;41.00
15574;DHT22;7888;46.748;8.102;2023-03-05T12:54:22;15.40;40.90
15574;DHT22;7888;46.748;8.102;2023-03-05T12:56:58;15.50;40.40
15574;DHT22;7888;46.748;8.102;2023-03-05T13:02:59;15.60;39.90
15574;DHT22;7888;46.748;8.102;2023-03-05T13:05:31;15.60;40.20
15574;DHT22;7888;46.748;8.102;2023-03-05T13:08:30;15.60;39.90
15574;DHT22;7888;46.748;8.102;2023-03-05T13:11:05;15.60;39.30
15574;DHT22;7888;46.748;8.102;2023-03-05T13:13:40;15.60;39.80
15574;DHT22;7888;46.748;8.102;2023-03-05T13:16:28;15.60;39.70
15574;DHT22;7888;46.748;8.102;2023-03-05T13:19:01;15.60;40.00
15574;DHT22;7888;46.748;8.102;2023-03-05T13:21:29;15.60;39.50
15574;DHT22;7888;46.748;8.102;2023-03-05T13:23:59;15.60;39.40
15574;DHT22;7888;46.748;8.102;2023-03-05T13:26:38;15.60;39.70
15574;DHT22;7888;46.748;8.102;2023-03-05T13:29:15;15.70;40.00
15574;DHT22;7888;46.748;8.102;2023-03-05T13:31:48;15.80;39.70
15574;DHT22;7888;46.748;8.102;2023-03-05T13:34:33;15.90;39.20
15574;DHT22;7888;46.748;8.102;2023-03-05T13:37:15;15.90;38.90
15574;DHT22;7888;46.748;8.102;2023-03-05T13:39:55;15.90;39.40
15574;DHT22;7888;46.748;8.102;2023-03-05T13:42:31;16.00;38.70
15574;DHT22;7888;46.748;8.102;2023-03-05T13:47:32;16.00;38.70
15574;DHT22;7888;46.748;8.102;2023-03-05T13:50:03;15.90;38.40
15574;DHT22;7888;46.748;8.102;2023-03-05T13:52:37;15.80;38.40
15574;DHT22;7888;46.748;8.102;2023-03-05T13:55:14;15.70;38.30
15574;DHT22;7888;46.748;8.102;2023-03-05T13:57:44;15.70;38.50
15574;DHT22;7888;46.748;8.102;2023-03-05T14:00:36;15.60;38.60
15574;DHT22;7888;46.748;8.102;2023-03-05T14:03:25;15.60;38.30
15574;DHT22;7888;46.748;8.102;2023-03-05T14:05:53;15.60;38.40
15574;DHT22;7888;46.748;8.102;2023-03-05T14:08:21;15.60;39.10
15574;DHT22;7888;46.748;8.102;2023-03-05T14:10:50;15.70;39.30
15574;DHT22;7888;46.748;8.102;2023-03-05T14:13:20;15.80;39.20
15574;DHT22;7888;46.748;8.102;2023-03-05T14:16:03;15.90;38.90
15574;DHT22;7888;46.748;8.102;2023-03-05T14:18:34;16.00;38.30
15574;DHT22;7888;46.748;8.102;2023-03-05T14:21:08;16.00;38.30
15574;DHT22;7888;46.748;8.102;2023-03-05T14:23:45;16.10;38.20
15574;DHT22;7888;46.748;8.102;2023-03-05T14:26:30;16.20;38.30
15574;DHT22;7888;46.748;8.102;2023-03-05T14:29:12;16.30;38.50
15574;DHT22;7888;46.748;8.102;2023-03-05T14:31:48;16.40;38.70
15574;DHT22;7888;46.748;8.102;2023-03-05T14:34:36;16.50;38.60
15574;DHT22;7888;46.748;8.102;2023-03-05T14:42:57;16.70;38.20
15574;DHT22;7888;46.748;8.102;2023-03-05T14:45:37;16.70;37.90
15574;DHT22;7888;46.748;8.102;2023-03-05T14:48:06;16.80;38.00
15574;DHT22;7888;46.748;8.102;2023-03-05T14:50:37;16.90;38.20
15574;DHT22;7888;46.748;8.102;2023-03-05T14:53:23;17.00;37.90
15574;DHT22;7888;46.748;8.102;2023-03-05T14:55:53;17.00;37.60
15574;DHT22;7888;46.748;8.102;2023-03-05T14:58:25;17.10;37.80
15574;DHT22;7888;46.748;8.102;2023-03-05T15:00:54;17.10;37.60
15574;DHT22;7888;46.748;8.102;2023-03-05T15:03:21;17.10;37.60
15574;DHT22;7888;46.748;8.102;2023-03-05T15:05:53;17.10;37.40
15574;DHT22;7888;46.748;8.102;2023-03-05T15:08:24;17.10;37.10
15574;DHT22;7888;46.748;8.102;2023-03-05T15:10:52;17.00;37.30
15574;DHT22;7888;46.748;8.102;2023-03-05T15:13:19;17.00;37.40
15574;DHT22;7888;46.748;8.102;2023-03-05T15:15:46;17.00;37.40
15574;DHT22;7888;46.748;8.102;2023-03-05T15:18:15;17.00;37.40
15574;DHT22;7888;46.748;8.102;2023-03-05T15:20:43;17.00;37.50
15574;DHT22;7888;46.748;8.102;2023-03-05T15:23:09;17.00;38.10
15574;DHT22;7888;46.748;8.102;2023-03-05T15:25:37;16.90;37.30
15574;DHT22;7888;46.748;8.102;2023-03-05T15:28:03;16.90;37.20
15574;DHT22;7888;46.748;8.102;2023-03-05T15:32:59;16.80;37.30
15574;DHT22;7888;46.748;8.102;2023-03-05T15:35:26;16.70;37.30
15574;DHT22;7888;46.748;8.102;2023-03-05T15:37:52;16.70;37.20
15574;DHT22;7888;46.748;8.102;2023-03-05T15:40:19;16.60;37.30
15574;DHT22;7888;46.748;8.102;2023-03-05T15:42:46;16.50;37.40
15574;DHT22;7888;46.748;8.102;2023-03-05T15:45:13;16.50;37.50
15574;DHT22;7888;46.748;8.102;2023-03-05T15:47:39;16.50;37.80
15574;DHT22;7888;46.748;8.102;2023-03-05T15:50:07;16.40;37.50
15574;DHT22;7888;46.748;8.102;2023-03-05T15:52:33;16.40;37.50
15574;DHT22;7888;46.748;8.102;2023-03-05T15:55:00;16.30;37.40
15574;DHT22;7888;46.748;8.102;2023-03-05T15:57:35;16.20;37.30
15574;DHT22;7888;46.748;8.102;2023-03-05T16:00:07;16.10;37.10
15574;DHT22;7888;46.748;8.102;2023-03-05T16:02:34;16.00;37.30
15574;DHT22;7888;46.748;8.102;2023-03-05T16:04:59;15.90;37.40
15574;DHT22;7888;46.748;8.102;2023-03-05T16:07:26;15.80;37.70
15574;DHT22;7888;46.748;8.102;2023-03-05T16:09:53;15.70;38.40
15574;DHT22;7888;46.748;8.102;2023-03-05T16:12:23;15.70;37.90
15574;DHT22;7888;46.748;8.102;2023-03-05T16:14:52;15.60;37.90
15574;DHT22;7888;46.748;8.102;2023-03-05T16:17:19;15.60;38.00
15574;DHT22;7888;46.748;8.102;2023-03-05T16:19:48;15.60;38.10
15574;DHT22;7888;46.748;8.102;2023-03-05T16:22:17;15.50;38.00
15574;DHT22;7888;46.748;8.102;2023-03-05T16:24:43;15.50;38.10
15574;DHT22;7888;46.748;8.102;2023-03-05T16:27:09;15.50;38.10
15574;DHT22;7888;46.748;8.102;2023-03-05T16:29:35;15.50;38.30
15574;DHT22;7888;46.748;8.102;2023-03-05T16:32:03;15.50;38.20
15574;DHT22;7888;46.748;8.102;2023-03-05T16:34:30;15.50;38.00
15574;DHT22;7888;46.748;8.102;2023-03-05T16:36:58;15.50;38.00
15574;DHT22;7888;46.748;8.102;2023-03-05T16:39:25;15.40;38.00
15574;DHT22;7888;46.748;8.102;2023-03-05T16:41:52;15.30;38.00
15574;DHT22;7888;46.748;8.102;2023-03-05T16:44:18;15.30;38.00
15574;DHT22;7888;46.748;8.102;2023-03-05T16:46:45;15.20;37.90
15574;DHT22;7888;46.748;8.102;2023-03-05T16:49:17;15.10;38.00
15574;DHT22;7888;46.748;8.102;2023-03-05T16:51:44;15.00;38.00
15574;DHT22;7888;46.748;8.102;2023-03-05T16:54:10;14.90;37.90
15574;DHT22;7888;46.748;8.102;2023-03-05T16:56:37;14.80;38.00
15574;DHT22;7888;46.748;8.102;2023-03-05T16:59:03;14.70;37.90
15574;DHT22;7888;46.748;8.102;2023-03-05T17:01:28;14.60;38.00
15574;DHT22;7888;46.748;8.102;2023-03-05T17:03:57;14.50;38.00
15574;DHT22;7888;46.748;8.102;2023-03-05T17:06:26;14.40;38.00
15574;DHT22;7888;46.748;8.102;2023-03-05T17:08:55;14.30;38.10
15574;DHT22;7888;46.748;8.102;2023-03-05T17:11:21;14.20;38.20
15574;DHT22;7888;46.748;8.102;2023-03-05T17:13:47;14.10;38.30
15574;DHT22;7888;46.748;8.102;2023-03-05T17:16:15;14.00;38.30
15574;DHT22;7888;46.748;8.102;2023-03-05T17:18:43;13.90;38.40
15574;DHT22;7888;46.748;8.102;2023-03-05T17:21:10;13.90;38.50
15574;DHT22;7888;46.748;8.102;2023-03-05T17:23:37;13.80;38.50
15574;DHT22;7888;46.748;8.102;2023-03-05T17:26:05;13.70;38.60
15574;DHT22;7888;46.748;8.102;2023-03-05T17:28:33;13.70;38.60
15574;DHT22;7888;46.748;8.102;2023-03-05T17:30:59;13.60;38.60
15574;DHT22;7888;46.748;8.102;2023-03-05T17:33:32;13.50;38.70
15574;DHT22;7888;46.748;8.102;2023-03-05T17:35:58;13.50;38.80
15574;DHT22;7888;46.748;8.102;2023-03-05T17:38:25;13.40;38.90
15574;DHT22;7888;46.748;8.102;2023-03-05T17:40:52;13.30;39.20
15574;DHT22;7888;46.748;8.102;2023-03-05T17:43:18;13.20;38.90
15574;DHT22;7888;46.748;8.102;2023-03-05T17:45:45;13.10;39.00
15574;DHT22;7888;46.748;8.102;2023-03-05T17:48:12;13.10;39.00
15574;DHT22;7888;46.748;8.102;2023-03-05T17:50:38;13.00;39.10